sensor_id;sensor_type;location;lat;lon;timestamp;temperature;humidity
10441;DHT22;5268;49.346;9.522;2024-01-06T04:09:21;3.40;99.90
10441;DHT22;5268;49.346;9.522;2024-01-06T04:14:24;3.40;99.90
10441;DHT22;5268;49.346;9.522;2024-01-06T04:19:26;3.40;99.90
10441;DHT22;5268;49.346;9.522;2024-01-06T04:24:29;3.30;99.90
10441;DHT22;5268;49.346;9.522;2024-01-06T04:29:31;3.30;99.90
10441;DHT22;5268;49.346;9.522;2024-01-06T04:34:33;3.40;99.90
10441;DHT22;5268;49.346;9.522;2024-01-06T04:39:36;3.40;99.90
10441;DHT22;5268;49.346;9.522;2024-01-06T04:44:39;3.40;99.90
10441;DHT22;5268;49.346;9.522;2024-01-06T04:49:41;3.40;99.90
10441;DHT22;5268;49.346;9.522;2024-01-06T04:54:44;3.30;99.90
10441;DHT22;5268;49.346;9.522;2024-01-06T04:59:46;3.30;99.90
10441;DHT22;5268;49.346;9.522;2024-01-06T05:04:48;3.30;99.90
10441;DHT22;5268;49.346;9.522;2024-01-06T05:09:51;3.30;99.90
10441;DHT22;5268;49.346;9.522;2024-01-06T05:14:53;3.30;99.90
10441;DHT22;5268;49.346;9.522;2024-01-06T05:19:55;3.30;99.90
10441;DHT22;5268;49.346;9.522;2024-01-06T05:24:59;3.30;99.90
10441;DHT22;5268;49.346;9.522;2024-01-06T05:30:01;3.30;99.90
10441;DHT22;5268;49.346;9.522;2024-01-06T05:35:04;3.30;99.90
10441;DHT22;5268;49.346;9.522;2024-01-06T05:40:09;3.30;99.90
10441;DHT22;5268;49.346;9.522;2024-01-06T05:45:12;3.30;99.90
10441;DHT22;5268;49.346;9.522;2024-01-06T05:50:15;3.30;99.90
10441;DHT22;5268;49.346;9.522;2024-01-06T05:55:19;3.30;99.90
10441;DHT22;5268;49.346;9.522;2024-01-06T06:00:21;3.30;99.90
10441;DHT22;5268;49.346;9.522;2024-01-06T06:05:23;3.40;99.90
10441;DHT22;5268;49.346;9.522;2024-01-06T06:10:29;3.40;99.90
10441;DHT22;5268;49.346;9.522;2024-01-06T06:15:41;3.40;99.90
10441;DHT22;5268;49.346;9.522;2024-01-06T06:20:43;3.50;99.90
10441;DHT22;5268;49.346;9.522;2024-01-06T06:25:46;3.50;99.90
10441;DHT22;5268;49.346;9.522;2024-01-06T06:30:48;3.60;99.90
10441;DHT22;5268;49.346;9.522;2024-01-06T06:35:50;3.50;99.90
10441;DHT22;5268;49.346;9.522;2024-01-06T06:40:54;3.50;99.90
10441;DHT22;5268;49.346;9.522;2024-01-06T06:45:56;3.60;99.90
10441;DHT22;5268;49.346;9.522;2024-01-06T06:50:58;3.60;99.90
10441;DHT22;5268;49.346;9.522;2024-01-06T06:56:01;3.60;99.90
10441;DHT22;5268;49.346;9.522;2024-01-06T07:01:03;3.60;99.90
10441;DHT22;5268;49.346;9.522;2024-01-06T07:06:06;3.70;99.90
10441;DHT22;5268;49.346;9.522;2024-01-06T07:11:09;3.70;99.90
10441;DHT22;5268;49.346;9.522;2024-01-06T07:16:15;3.70;99.90
10441;DHT22;5268;49.346;9.522;2024-01-06T07:21:17;3.70;99.90
10441;DHT22;5268;49.346;9.522;2024-01-06T07:26:20;3.70;99.90
10441;DHT22;5268;49.346;9.522;2024-01-06T07:31:22;3.80;99.90
10441;DHT22;5268;49.346;9.522;2024-01-06T07:36:24;3.80;99.90
10441;DHT22;5268;49.346;9.522;2024-01-06T07:41:28;3.80;99.90
10441;DHT22;5268;49.346;9.522;2024-01-06T07:46:31;3.90;99.90
10441;DHT22;5268;49.346;9.522;2024-01-06T07:51:33;3.90;99.90
10441;DHT22;5268;49.346;9.522;2024-01-06T07:56:37;4.00;99.90
10441;DHT22;5268;49.346;9.522;2024-01-06T08:01:39;4.10;99.90
10441;DHT22;5268;49.346;9.522;2024-01-06T08:06:43;4.10;99.90
10441;DHT22;5268;49.346;9.522;2024-01-06T08:11:46;4.20;99.90
10441;DHT22;5268;49.346;9.522;2024-01-06T08:16:48;4.20;99.90
10441;DHT22;5268;49.346;9.522;2024-01-06T08:21:50;4.30;99.90
10441;DHT22;5268;49.346;9.522;2024-01-06T08:26:54;4.30;99.90
10441;DHT22;5268;49.346;9.522;2024-01-06T08:31:56;4.40;99.90
10441;DHT22;5268;49.346;9.522;2024-01-06T08:36:57;4.40;99.90
10441;DHT22;5268;49.346;9.522;2024-01-06T08:42:01;4.50;99.90
10441;DHT22;5268;49.346;9.522;2024-01-06T08:47:04;4.50;99.90
10441;DHT22;5268;49.346;9.522;2024-01-06T08:52:06;4.60;99.90
10441;DHT22;5268;49.346;9.522;2024-01-06T08:57:09;4.60;99.90
10441;DHT22;5268;49.346;9.522;2024-01-06T09:02:11;4.60;99.90
10441;DHT22;5268;49.346;9.522;2024-01-06T09:07:13;4.60;99.90
10441;DHT22;5268;49.346;9.522;2024-01-06T09:12:16;4.70;99.90
10441;DHT22;5268;49.346;9.522;2024-01-06T09:17:18;4.70;99.90
10441;DHT22;5268;49.346;9.522;2024-01-06T09:22:20;4.80;99.90
10441;DHT22;5268;49.346;9.522;2024-01-06T09:27:24;4.90;99.90
10441;DHT22;5268;49.346;9.522;2024-01-06T09:32:26;4.90;99.90
10441;DHT22;5268;49.346;9.522;2024-01-06T09:37:28;5.00;99.90
10441;DHT22;5268;49.346;9.522;2024-01-06T09:42:31;5.00;99.90
10441;DHT22;5268;49.346;9.522;2024-01-06T09:47:34;5.10;99.90
10441;DHT22;5268;49.346;9.522;2024-01-06T09:52:39;5.20;99.90
10441;DHT22;5268;49.346;9.522;2024-01-06T09:57:45;5.20;99.90
10441;DHT22;5268;49.346;9.522;2024-01-06T10:02:47;5.20;99.90
10441;DHT22;5268;49.346;9.522;2024-01-06T10:07:49;5.30;99.90
10441;DHT22;5268;49.346;9.522;2024-01-06T10:12:54;5.30;99.90
10441;DHT22;5268;49.346;9.522;2024-01-06T10:17:57;5.30;99.90
10441;DHT22;5268;49.346;9.522;2024-01-06T10:23:04;5.40;99.90
10441;DHT22;5268;49.346;9.522;2024-01-06T10:28:11;5.40;99.90
10441;DHT22;5268;49.346;9.522;2024-01-06T10:33:14;5.40;99.90
10441;DHT22;5268;49.346;9.522;2024-01-06T10:38:16;5.50;99.90
10441;DHT22;5268;49.346;9.522;2024-01-06T10:43:21;5.50;99.90
10441;DHT22;5268;49.346;9.522;2024-01-06T10:48:25;5.60;99.90
10441;DHT22;5268;49.346;9.522;2024-01-06T10:53:27;5.60;99.90
10441;DHT22;5268;49.346;9.522;2024-01-06T10:58:30;5.70;99.90
10441;DHT22;5268;49.346;9.522;2024-01-06T11:03:36;5.80;99.90
10441;DHT22;5268;49.346;9.522;2024-01-06T11:08:46;5.80;99.90
10441;DHT22;5268;49.346;9.522;2024-01-06T11:13:51;6.00;99.90
10441;DHT22;5268;49.346;9.522;2024-01-06T11:18:53;6.10;99.90
10441;DHT22;5268;49.346;9.522;2024-01-06T11:24:11;6.20;99.90
10441;DHT22;5268;49.346;9.522;2024-01-06T11:29:17;6.30;99.90
10441;DHT22;5268;49.346;9.522;2024-01-06T11:34:19;6.40;99.90
10441;DHT22;5268;49.346;9.522;2024-01-06T11:39:34;6.50;99.90
10441;DHT22;5268;49.346;9.522;2024-01-06T11:44:39;6.60;99.90
10441;DHT22;5268;49.346;9.522;2024-01-06T11:49:43;6.60;99.90
10441;DHT22;5268;49.346;9.522;2024-01-06T11:54:46;6.70;99.90
10441;DHT22;5268;49.346;9.522;2024-01-06T11:59:50;6.80;99.90
10441;DHT22;5268;49.346;9.522;2024-01-06T12:04:53;6.90;99.90
10441;DHT22;5268;49.346;9.522;2024-01-06T12:10:01;7.00;99.90
10441;DHT22;5268;49.346;9.522;2024-01-06T12:15:05;7.10;99.90
10441;DHT22;5268;49.346;9.522;2024-01-06T12:20:10;7.10;99.90
10441;DHT22;5268;49.346;9.522;2024-01-06T12:25:14;7.20;99.90
10441;DHT22;5268;49.346;9.522;2024-01-06T12:30:19;7.00;99.90
10441;DHT22;5268;49.346;9.522;2024-01-06T12:35:21;6.90;99.90
10441;DHT22;5268;49.346;9.522;2024-01-06T12:40:23;6.90;99.90
10441;DHT22;5268;49.346;9.522;2024-01-06T12:45:28;6.80;99.90
10441;DHT22;5268;49.346;9.522;2024-01-06T12:50:30;6.90;99.90
10441;DHT22;5268;49.346;9.522;2024-01-06T12:55:32;7.00;99.90
10441;DHT22;5268;49.346;9.522;2024-01-06T13:00:36;7.10;99.90
10441;DHT22;5268;49.346;9.522;2024-01-06T13:05:38;7.10;99.90
10441;DHT22;5268;49.346;9.522;2024-01-06T13:10:40;7.20;99.90
10441;DHT22;5268;49.346;9.522;2024-01-06T13:15:43;7.10;99.90
10441;DHT22;5268;49.346;9.522;2024-01-06T13:20:46;7.00;99.90
10441;DHT22;5268;49.346;9.522;2024-01-06T13:25:48;6.90;99.90
10441;DHT22;5268;49.346;9.522;2024-01-06T13:30:52;6.90;99.90
10441;DHT22;5268;49.346;9.522;2024-01-06T13:35:54;6.90;99.90
10441;DHT22;5268;49.346;9.522;2024-01-06T13:40:56;7.00;99.90
10441;DHT22;5268;49.346;9.522;2024-01-06T13:45:59;7.00;99.90
10441;DHT22;5268;49.346;9.522;2024-01-06T13:51:02;7.10;99.90
10441;DHT22;5268;49.346;9.522;2024-01-06T13:56:05;7.10;99.90
10441;DHT22;5268;49.346;9.522;2024-01-06T14:01:09;7.10;99.90
10441;DHT22;5268;49.346;9.522;2024-01-06T14:06:11;7.10;99.90
10441;DHT22;5268;49.346;9.522;2024-01-06T14:11:13;7.10;99.90
10441;DHT22;5268;49.346;9.522;2024-01-06T14:16:16;7.10;99.90
10441;DHT22;5268;49.346;9.522;2024-01-06T14:21:19;7.10;99.90
10441;DHT22;5268;49.346;9.522;2024-01-06T14:26:21;7.00;99.90
10441;DHT22;5268;49.346;9.522;2024-01-06T14:31:26;7.00;99.90
10441;DHT22;5268;49.346;9.522;2024-01-06T14:36:28;6.90;99.90
10441;DHT22;5268;49.346;9.522;2024-01-06T14:41:30;7.00;99.90
10441;DHT22;5268;49.346;9.522;2024-01-06T14:46:33;7.00;99.90
10441;DHT22;5268;49.346;9.522;2024-01-06T14:51:36;7.00;99.90
10441;DHT22;5268;49.346;9.522;2024-01-06T14:56:38;7.00;99.90
10441;DHT22;5268;49.346;9.522;2024-01-06T15:01:44;7.00;99.90
10441;DHT22;5268;49.346;9.522;2024-01-06T15:06:46;7.00;99.90
10441;DHT22;5268;49.346;9.522;2024-01-06T15:11:48;7.00;99.90
10441;DHT22;5268;49.346;9.522;2024-01-06T15:16:51;7.00;99.90
10441;DHT22;5268;49.346;9.522;2024-01-06T15:21:53;7.00;99.90
10441;DHT22;5268;49.346;9.522;2024-01-06T15:26:55;7.00;99.90
10441;DHT22;5268;49.346;9.522;2024-01-06T15:31:58;7.00;99.90
10441;DHT22;5268;49.346;9.522;2024-01-06T15:37:00;7.00;99.90
10441;DHT22;5268;49.346;9.522;2024-01-06T15:42:02;6.90;99.90
10441;DHT22;5268;49.346;9.522;2024-01-06T15:47:06;6.90;99.90
10441;DHT22;5268;49.346;9.522;2024-01-06T15:52:08;6.90;99.90
10441;DHT22;5268;49.346;9.522;2024-01-06T15:57:09;6.90;99.90
10441;DHT22;5268;49.346;9.522;2024-01-06T16:02:13;6.90;99.90
10441;DHT22;5268;49.346;9.522;2024-01-06T16:07:15;6.90;99.90
10441;DHT22;5268;49.346;9.522;2024-01-06T16:12:17;6.90;99.90
10441;DHT22;5268;49.346;9.522;2024-01-06T16:17:20;6.90;99.90
10441;DHT22;5268;49.346;9.522;2024-01-06T16:22:23;6.90;99.90
10441;DHT22;5268;49.346;9.522;2024-01-06T16:27:25;6.80;99.90
10441;DHT22;5268;49.346;9.522;2024-01-06T16:32:29;6.80;99.90
10441;DHT22;5268;49.346;9.522;2024-01-06T16:37:31;6.70;99.90
10441;DHT22;5268;49.346;9.522;2024-01-06T16:42:33;6.70;99.90
10441;DHT22;5268;49.346;9.522;2024-01-06T16:47:37;6.70;99.90
10441;DHT22;5268;49.346;9.522;2024-01-06T16:52:40;6.60;99.90
10441;DHT22;5268;49.346;9.522;2024-01-06T16:57:42;6.60;99.90
10441;DHT22;5268;49.346;9.522;2024-01-06T17:02:47;6.60;99.90
10441;DHT22;5268;49.346;9.522;2024-01-06T17:07:49;6.60;99.90
10441;DHT22;5268;49.346;9.522;2024-01-06T17:12:51;6.50;99.90
10441;DHT22;5268;49.346;9.522;2024-01-06T17:17:56;6.50;99.90
10441;DHT22;5268;49.346;9.522;2024-01-06T17:22:58;6.50;99.90
10441;DHT22;5268;49.346;9.522;2024-01-06T17:28:00;6.40;99.90
10441;DHT22;5268;49.346;9.522;2024-01-06T17:33:04;6.30;99.90
10441;DHT22;5268;49.346;9.522;2024-01-06T17:38:06;6.30;99.90
10441;DHT22;5268;49.346;9.522;2024-01-06T17:43:08;6.20;99.90
10441;DHT22;5268;49.346;9.522;2024-01-06T17:48:11;6.20;99.90
10441;DHT22;5268;49.346;9.522;2024-01-06T17:53:13;6.20;99.90
10441;DHT22;5268;49.346;9.522;2024-01-06T17:58:16;6.10;99.90
10441;DHT22;5268;49.346;9.522;2024-01-06T18:03:19;6.10;99.90
10441;DHT22;5268;49.346;9.522;2024-01-06T18:08:21;6.10;99.90
10441;DHT22;5268;49.346;9.522;2024-01-06T18:13:23;6.00;99.90
10441;DHT22;5268;49.346;9.522;2024-01-06T18:18:26;5.90;99.90
10441;DHT22;5268;49.346;9.522;2024-01-06T18:23:28;5.90;99.90
10441;DHT22;5268;49.346;9.522;2024-01-06T18:28:30;5.80;99.90
10441;DHT22;5268;49.346;9.522;2024-01-06T18:33:34;5.80;99.90
10441;DHT22;5268;49.346;9.522;2024-01-06T18:38:36;5.70;99.90
10441;DHT22;5268;49.346;9.522;2024-01-06T18:43:38;5.70;99.90
10441;DHT22;5268;49.346;9.522;2024-01-06T18:48:42;5.70;99.90
10441;DHT22;5268;49.346;9.522;2024-01-06T18:53:44;5.60;99.90
10441;DHT22;5268;49.346;9.522;2024-01-06T18:58:46;5.60;99.90
10441;DHT22;5268;49.346;9.522;2024-01-06T19:03:50;5.60;99.90
10441;DHT22;5268;49.346;9.522;2024-01-06T19:08:51;5.50;99.90
10441;DHT22;5268;49.346;9.522;2024-01-06T19:13:53;5.40;99.90
10441;DHT22;5268;49.346;9.522;2024-01-06T19:18:57;5.30;99.90
10441;DHT22;5268;49.346;9.522;2024-01-06T19:23:59;5.30;99.90
10441;DHT22;5268;49.346;9.522;2024-01-06T19:29:01;5.30;99.90
10441;DHT22;5268;49.346;9.522;2024-01-06T19:34:04;5.30;99.90
10441;DHT22;5268;49.346;9.522;2024-01-06T19:39:07;5.20;99.90
10441;DHT22;5268;49.346;9.522;2024-01-06T19:44:09;5.20;99.90
10441;DHT22;5268;49.346;9.522;2024-01-06T19:49:12;5.20;99.90
10441;DHT22;5268;49.346;9.522;2024-01-06T19:54:14;5.20;99.90
10441;DHT22;5268;49.346;9.522;2024-01-06T19:59:16;5.20;99.90
10441;DHT22;5268;49.346;9.522;2024-01-06T20:04:20;5.20;99.90
10441;DHT22;5268;49.346;9.522;2024-01-06T20:09:21;5.10;99.90
10441;DHT22;5268;49.346;9.522;2024-01-06T20:14:23;5.10;99.90
10441;DHT22;5268;49.346;9.522;2024-01-06T20:19:27;5.10;99.90
10441;DHT22;5268;49.346;9.522;2024-01-06T20:24:29;5.10;99.90
10441;DHT22;5268;49.346;9.522;2024-01-06T20:29:31;5.10;99.90
10441;DHT22;5268;49.346;9.522;2024-01-06T20:34:34;5.00;99.90
10441;DHT22;5268;49.346;9.522;2024-01-06T20:39:38;5.00;99.90
10441;DHT22;5268;49.346;9.522;2024-01-06T20:44:40;5.00;99.90
10441;DHT22;5268;49.346;9.522;2024-01-06T20:49:43;5.00;99.90
10441;DHT22;5268;49.346;9.522;2024-01-06T20:54:45;4.90;99.90
10441;DHT22;5268;49.346;9.522;2024-01-06T20:59:47;4.90;99.90
10441;DHT22;5268;49.346;9.522;2024-01-06T21:04:51;4.90;99.90
10441;DHT22;5268;49.346;9.522;2024-01-06T21:09:53;4.90;99.90
10441;DHT22;5268;49.346;9.522;2024-01-06T21:14:55;4.90;99.90
10441;DHT22;5268;49.346;9.522;2024-01-06T21:19:59;4.80;99.90
10441;DHT22;5268;49.346;9.522;2024-01-06T21:25:02;4.90;99.90
10441;DHT22;5268;49.346;9.522;2024-01-06T21:30:06;4.80;99.90
10441;DHT22;5268;49.346;9.522;2024-01-06T21:35:10;4.80;99.90
10441;DHT22;5268;49.346;9.522;2024-01-06T21:40:12;4.80;99.90
10441;DHT22;5268;49.346;9.522;2024-01-06T21:45:14;4.70;99.90
10441;DHT22;5268;49.346;9.522;2024-01-06T21:50:17;4.80;99.90
10441;DHT22;5268;49.346;9.522;2024-01-06T21:55:19;4.70;99.90
10441;DHT22;5268;49.346;9.522;2024-01-06T22:00:21;4.60;99.90
10441;DHT22;5268;49.346;9.522;2024-01-06T22:05:24;4.50;99.90
10441;DHT22;5268;49.346;9.522;2024-01-06T22:10:26;4.50;99.90
10441;DHT22;5268;49.346;9.522;2024-01-06T22:15:32;4.50;99.90
10441;DHT22;5268;49.346;9.522;2024-01-06T22:20:36;4.60;99.90
10441;DHT22;5268;49.346;9.522;2024-01-06T22:25:38;4.60;99.90
10441;DHT22;5268;49.346;9.522;2024-01-06T22:30:40;4.60;99.90
10441;DHT22;5268;49.346;9.522;2024-01-06T22:35:43;4.70;99.90
10441;DHT22;5268;49.346;9.522;2024-01-06T22:40:45;4.60;99.90
10441;DHT22;5268;49.346;9.522;2024-01-06T22:45:47;4.60;99.90
10441;DHT22;5268;49.346;9.522;2024-01-06T22:50:50;4.70;99.90
